Time;durP1;ratioP1;P1;durP2;ratioP2;P2;SDS_P1;SDS_P2;PMS_P1;PMS_P2;Temp;Humidity;BMP_temperature;BMP_pressure;BME280_temperature;BME280_humidity;BME280_pressure;Samples;Min_cycle;Max_cycle;Signal;HPM_P1;HPM_P2
2022/04/27 00:03:32;;;;;;;7.67;5.47;;;;;;;7.38;36.23;101149.53;10141285;29;20523;-83
2022/04/27 00:08:35;;;;;;;9.60;6.77;;;;;;;7.58;35.90;101143.88;10156894;29;20244;-83
2022/04/27 00:13:37;;;;;;;7.90;6.40;;;;;;;7.52;35.60;101152.94;10156686;29;20192;-83
2022/04/27 00:18:40;;;;;;;8.83;5.83;;;;;;;7.42;35.24;101156.19;10155301;29;20233;-83
2022/04/27 00:23:42;;;;;;;11.67;6.07;;;;;;;7.90;34.78;101145.06;10155729;29;20200;-83
2022/04/27 00:28:44;;;;;;;7.37;6.03;;;;;;;7.80;35.16;101156.03;10140001;29;20626;-83
2022/04/27 00:33:46;;;;;;;8.80;6.50;;;;;;;7.79;34.87;101155.19;10155645;29;20268;-84
2022/04/27 00:38:48;;;;;;;10.57;6.30;;;;;;;7.25;35.57;101169.28;10140187;29;20204;-82
2022/04/27 00:43:50;;;;;;;8.07;6.23;;;;;;;7.23;35.30;101165.94;10159758;29;20598;-83
2022/04/27 00:48:53;;;;;;;8.57;5.80;;;;;;;7.45;35.32;101161.19;10172124;29;20693;-83
2022/04/27 00:53:58;;;;;;;8.07;6.13;;;;;;;7.27;36.28;101157.63;10169942;29;20240;-83
2022/04/27 00:59:00;;;;;;;9.10;6.17;;;;;;;7.24;35.57;101161.94;10169675;29;20590;-83
2022/04/27 01:04:07;;;;;;;8.70;5.60;;;;;;;7.42;34.99;101156.19;10159428;29;20256;-83
2022/04/27 01:09:10;;;;;;;7.43;5.43;;;;;;;6.79;34.62;101163.72;10152608;29;20256;-83
2022/04/27 01:14:12;;;;;;;10.07;6.97;;;;;;;6.99;35.87;101168.59;10168899;29;20511;-85
2022/04/27 01:19:16;;;;;;;11.37;6.10;;;;;;;7.04;35.10;101174.09;10169325;29;20232;-83
2022/04/27 01:24:20;;;;;;;8.90;6.27;;;;;;;6.77;35.69;101174.56;10153570;29;20267;-83
2022/04/27 01:29:22;;;;;;;9.73;6.43;;;;;;;7.06;35.88;101180.25;10154221;29;20256;-82
2022/04/27 01:34:25;;;;;;;10.07;7.00;;;;;;;6.99;36.36;101170.63;10138754;29;20228;-83
2022/04/27 01:39:27;;;;;;;9.50;7.30;;;;;;;6.73;36.77;101185.75;10122646;29;20204;-83
2022/04/27 01:44:29;;;;;;;8.10;6.90;;;;;;;6.32;36.77;101197.69;10152968;29;20205;-82
2022/04/27 01:49:32;;;;;;;9.73;7.43;;;;;;;7.02;36.09;101198.31;10152957;29;20307;-83
2022/04/27 01:54:34;;;;;;;12.57;7.00;;;;;;;6.84;36.64;101197.53;10160017;29;20224;-82
2022/04/27 01:59:38;;;;;;;10.53;7.27;;;;;;;6.82;35.82;101200.75;10160821;29;20197;-83
2022/04/27 02:04:40;;;;;;;9.20;6.87;;;;;;;7.21;35.27;101202.38;10167263;29;20196;-84
2022/04/27 02:09:45;;;;;;;9.73;6.73;;;;;;;7.12;34.67;101220.59;10167620;29;20279;-85
2022/04/27 02:14:49;;;;;;;10.20;6.13;;;;;;;7.15;34.65;101220.75;10167659;29;20201;-84
2022/04/27 02:19:51;;;;;;;9.87;6.37;;;;;;;7.08;34.49;101219.66;10167088;29;20236;-84
2022/04/27 02:24:54;;;;;;;10.97;5.90;;;;;;;7.26;34.52;101218.38;10167306;29;20197;-84
2022/04/27 02:29:57;;;;;;;7.30;6.10;;;;;;;7.16;34.58;101222.44;10184361;29;20208;-84
2022/04/27 02:35:03;;;;;;;6.87;6.03;;;;;;;6.90;35.18;101225.38;10167323;29;20602;-82
2022/04/27 02:40:10;;;;;;;6.53;5.90;;;;;;;6.59;36.10;101220.00;10166248;29;20538;-83
2022/04/27 02:45:13;;;;;;;7.97;6.13;;;;;;;6.65;35.34;101228.31;10179016;29;20252;-83
2022/04/27 02:55:36;;;;;;;7.77;6.63;;;;;;;6.87;34.72;101239.41;10168786;29;20602;-82
2022/04/27 03:00:39;;;;;;;9.33;6.77;;;;;;;6.40;35.89;101239.38;10166504;29;20244;-82
2022/04/27 03:05:44;;;;;;;12.33;7.80;;;;;;;6.55;35.41;101244.53;10168164;29;20203;-81
2022/04/27 03:10:47;;;;;;;12.40;7.90;;;;;;;6.73;34.53;101245.28;10198890;29;20240;-82
2022/04/27 03:15:50;;;;;;;9.10;7.77;;;;;;;6.27;36.12;101253.72;10197965;29;20565;-82
2022/04/27 03:20:52;;;;;;;9.53;7.20;;;;;;;6.72;35.06;101252.13;10198698;29;20291;-83
2022/04/27 03:25:56;;;;;;;14.03;8.60;;;;;;;6.76;35.52;101247.47;10198016;29;20232;-82
2022/04/27 03:30:58;;;;;;;9.57;7.90;;;;;;;6.68;35.50;101256.00;10197617;29;20223;-83
2022/04/27 03:36:09;;;;;;;11.23;7.93;;;;;;;6.43;35.79;101255.69;10176434;29;20200;-83
2022/04/27 03:41:15;;;;;;;11.07;7.50;;;;;;;6.77;35.33;101259.63;10158622;29;20188;-82
2022/04/27 03:46:19;;;;;;;14.07;8.60;;;;;;;6.71;35.77;101266.66;10157634;29;20248;-83
2022/04/27 03:51:42;;;;;;;10.37;8.40;;;;;;;6.87;35.37;101270.59;10173278;29;20220;-82
2022/04/27 03:56:44;;;;;;;12.23;8.43;;;;;;;6.79;35.29;101274.31;10157068;29;20204;-82
2022/04/27 04:01:47;;;;;;;14.27;8.50;;;;;;;6.32;35.50;101277.03;10157615;29;20192;-83
2022/04/27 04:06:52;;;;;;;10.13;8.27;;;;;;;6.47;35.62;101284.19;10157209;29;20216;-86
2022/04/27 04:11:55;;;;;;;11.97;8.13;;;;;;;6.28;35.74;101287.38;10156802;29;20272;-83
2022/04/27 04:17:06;;;;;;;11.23;8.40;;;;;;;6.14;36.06;101292.38;10157905;29;20232;-83
2022/04/27 04:22:18;;;;;;;11.67;8.37;;;;;;;6.02;36.33;101300.72;10156189;29;20255;-82
2022/04/27 04:33:03;;;;;;;12.43;8.87;;;;;;;5.84;36.19;101317.69;10171231;29;20733;-84
2022/04/27 04:38:08;;;;;;;10.07;8.50;;;;;;;6.13;35.99;101319.06;10178952;29;20192;-84
2022/04/27 04:43:11;;;;;;;12.80;8.47;;;;;;;6.14;35.84;101329.22;10135390;29;20296;-83
2022/04/27 04:48:15;;;;;;;11.80;8.17;;;;;;;5.97;35.99;101326.38;10150467;29;20321;-82
2022/04/27 04:53:47;;;;;;;12.57;8.80;;;;;;;5.71;36.19;101327.16;10164955;29;20276;-82
2022/04/27 04:59:10;;;;;;;16.03;10.53;;;;;;;5.67;36.78;101345.91;10140731;29;20705;-83
2022/04/27 05:04:22;;;;;;;12.33;9.73;;;;;;;5.81;36.58;101359.97;10106226;29;20213;-83
2022/04/27 05:09:47;;;;;;;17.50;10.67;;;;;;;5.93;36.27;101359.34;10153656;29;20322;-86
2022/04/27 05:15:09;;;;;;;14.33;10.20;;;;;;;6.11;35.69;101350.53;10135674;29;20235;-86
2022/04/27 05:20:38;;;;;;;10.83;9.33;;;;;;;5.77;36.21;101362.66;10157649;29;20585;-86
2022/04/27 05:25:53;;;;;;;11.33;9.50;;;;;;;5.95;35.57;101366.34;10126736;29;20237;-86
2022/04/27 05:36:56;;;;;;;15.80;10.80;;;;;;;6.02;36.21;101377.19;10163884;29;20240;-83
2022/04/27 05:42:22;;;;;;;14.87;10.83;;;;;;;5.68;36.90;101381.56;10136305;29;20299;-83
2022/04/27 05:47:28;;;;;;;12.07;10.83;;;;;;;6.18;35.85;101378.38;10131003;29;20292;-83
2022/04/27 05:52:52;;;;;;;13.07;9.90;;;;;;;6.36;35.51;101380.06;10149109;29;20315;-82
2022/04/27 05:58:13;;;;;;;14.83;10.60;;;;;;;6.39;35.10;101390.72;10145121;29;20200;-83
2022/04/27 06:03:34;;;;;;;14.67;10.63;;;;;;;6.29;35.60;101393.91;10165162;29;20267;-82
2022/04/27 06:08:41;;;;;;;15.63;9.97;;;;;;;6.03;35.73;101393.88;10152402;29;20256;-83
2022/04/27 06:13:49;;;;;;;12.60;10.87;;;;;;;6.56;35.13;101395.63;10145878;29;20237;-84
2022/04/27 06:19:07;;;;;;;16.23;10.43;;;;;;;6.69;34.40;101405.94;10153834;29;20232;-82
2022/04/27 06:24:18;;;;;;;12.27;10.57;;;;;;;7.40;33.66;101409.16;10156939;29;20314;-84
2022/04/27 06:29:20;;;;;;;14.10;10.87;;;;;;;6.96;34.43;101410.41;10152288;29;20291;-83
2022/04/27 06:34:25;;;;;;;18.10;11.77;;;;;;;6.69;34.43;101416.44;10138448;29;20193;-84
2022/04/27 06:39:28;;;;;;;15.20;12.53;;;;;;;7.06;33.21;101421.41;10168898;29;20669;-82
2022/04/27 06:44:32;;;;;;;14.70;11.77;;;;;;;7.52;32.84;101428.31;10142741;29;20204;-82
2022/04/27 06:49:53;;;;;;;16.93;12.17;;;;;;;7.64;32.25;101431.28;10147141;29;20315;-84
2022/04/27 06:55:22;;;;;;;12.50;11.20;;;;;;;7.31;33.05;101428.22;10121373;29;20283;-84
2022/04/27 07:00:44;;;;;;;16.13;10.20;;;;;;;7.24;33.28;101433.53;10139227;29;20192;-84
2022/04/27 07:05:51;;;;;;;14.23;12.27;;;;;;;7.01;34.29;101438.59;10156197;29;20212;-82
2022/04/27 07:10:55;;;;;;;15.07;10.70;;;;;;;7.06;33.51;101441.28;10161531;29;20567;-83
2022/04/27 07:16:00;;;;;;;17.93;11.20;;;;;;;7.90;31.39;101434.81;10157237;29;20295;-81
2022/04/27 07:21:05;;;;;;;12.90;9.10;;;;;;;7.54;32.37;101434.50;10156947;29;20236;-83
2022/04/27 07:26:12;;;;;;;12.37;10.30;;;;;;;7.83;32.05;101434.53;10139298;29;20330;-83
2022/04/27 07:31:14;;;;;;;9.53;7.43;;;;;;;7.90;31.37;101440.50;10132775;29;20303;-82
2022/04/27 07:36:17;;;;;;;12.13;9.67;;;;;;;7.81;32.37;101441.75;10159912;29;20228;-82
2022/04/27 07:41:19;;;;;;;12.30;8.20;;;;;;;8.32;30.37;101446.31;10148965;29;20274;-81
2022/04/27 07:46:21;;;;;;;11.80;8.93;;;;;;;8.30;31.20;101451.50;10164289;29;20703;-82
2022/04/27 07:51:23;;;;;;;9.27;8.27;;;;;;;8.81;30.76;101449.50;10145069;29;20248;-82
2022/04/27 07:56:25;;;;;;;13.20;7.53;;;;;;;8.58;30.37;101455.50;10155162;29;20204;-82
2022/04/27 08:01:27;;;;;;;18.77;8.83;;;;;;;8.44;32.16;101454.94;10125358;29;20220;-83
2022/04/27 08:06:30;;;;;;;11.07;6.10;;;;;;;9.29;29.30;101458.25;10144136;29;20276;-84
2022/04/27 08:11:32;;;;;;;8.17;5.43;;;;;;;8.91;30.22;101457.59;10155375;29;20679;-81
2022/04/27 08:16:34;;;;;;;11.17;6.27;;;;;;;9.25;29.75;101460.13;10155769;29;20264;-80
2022/04/27 08:21:43;;;;;;;7.27;5.50;;;;;;;9.07;28.94;101458.63;10151447;29;20514;-80
2022/04/27 08:26:45;;;;;;;9.93;5.90;;;;;;;9.39;30.39;101460.66;10154860;29;20208;-81
2022/04/27 08:31:47;;;;;;;9.60;5.57;;;;;;;8.75;28.68;101471.63;10149545;29;20252;-81
2022/04/27 08:36:50;;;;;;;8.87;5.20;;;;;;;9.08;29.18;101474.53;10173536;29;20203;-82
2022/04/27 08:41:52;;;;;;;6.87;5.17;;;;;;;9.78;28.17;101469.78;10156179;29;20276;-84
2022/04/27 08:46:55;;;;;;;8.40;5.30;;;;;;;8.88;29.04;101484.75;10155320;29;20213;-81
2022/04/27 08:52:00;;;;;;;8.50;5.50;;;;;;;10.29;27.41;101473.16;10169510;29;20678;-80
2022/04/27 08:57:04;;;;;;;7.53;5.17;;;;;;;9.80;27.61;101477.97;10153940;29;20260;-80
2022/04/27 09:02:28;;;;;;;10.73;5.57;;;;;;;9.74;27.52;101478.19;10148401;29;20231;-81
2022/04/27 09:07:51;;;;;;;7.77;5.87;;;;;;;8.73;30.51;101484.53;10152464;29;20228;-84
2022/04/27 09:12:55;;;;;;;14.43;5.63;;;;;;;9.66;27.98;101469.75;10161587;29;20236;-85
2022/04/27 09:23:37;;;;;;;6.27;4.93;;;;;;;10.32;25.94;101487.53;10138650;29;20259;-85
2022/04/27 09:28:39;;;;;;;12.97;5.30;;;;;;;10.00;26.94;101488.44;10151591;29;20283;-82
2022/04/27 09:33:41;;;;;;;12.93;5.60;;;;;;;9.41;27.39;101492.47;10162272;29;20229;-88
2022/04/27 09:38:44;;;;;;;10.33;5.53;;;;;;;11.18;25.63;101482.44;10135442;29;20287;-82
2022/04/27 09:43:47;;;;;;;10.00;6.47;;;;;;;8.05;28.16;101492.28;10149252;29;20236;-83
2022/04/27 09:49:04;;;;;;;9.70;6.73;;;;;;;10.88;25.47;101483.97;10149307;29;20251;-83
2022/04/27 09:54:31;;;;;;;9.20;6.80;;;;;;;10.47;25.54;101483.09;10148650;29;20287;-82
2022/04/27 09:59:35;;;;;;;8.43;6.40;;;;;;;9.47;28.43;101481.69;10150415;29;20271;-83
2022/04/27 10:04:40;;;;;;;10.00;7.07;;;;;;;11.40;26.77;101479.00;10150053;29;20268;-83
2022/04/27 10:09:42;;;;;;;8.80;6.43;;;;;;;10.75;26.31;101481.13;10151863;29;20248;-82
2022/04/27 10:14:48;;;;;;;9.83;7.40;;;;;;;10.27;27.58;101470.66;10156130;29;20607;-83
2022/04/27 10:19:50;;;;;;;8.63;6.77;;;;;;;10.02;27.04;101469.78;10135216;29;20260;-84
2022/04/27 10:24:55;;;;;;;7.97;6.10;;;;;;;10.60;26.20;101473.31;10135038;29;20245;-83
2022/04/27 10:30:03;;;;;;;10.47;7.23;;;;;;;10.31;27.46;101473.63;10136061;29;20256;-83
2022/04/27 10:35:21;;;;;;;15.13;7.87;;;;;;;9.72;27.81;101468.31;10133052;29;20614;-83
2022/04/27 10:40:43;;;;;;;7.10;6.07;;;;;;;12.17;24.96;101461.47;10146768;29;20678;-81
2022/04/27 10:45:49;;;;;;;8.40;6.40;;;;;;;10.80;25.42;101469.50;10132964;29;20205;-83
2022/04/27 10:51:03;;;;;;;8.93;6.93;;;;;;;10.43;25.13;101465.88;10108808;29;20651;-83
2022/04/27 10:56:25;;;;;;;7.63;5.83;;;;;;;10.83;25.13;101465.94;10130650;29;20209;-83
2022/04/27 11:01:31;;;;;;;9.73;6.47;;;;;;;9.26;27.73;101475.19;10138127;29;20216;-84
2022/04/27 11:07:31;;;;;;;6.93;6.23;;;;;;;10.24;27.06;101464.81;10141491;29;20237;-83
2022/04/27 11:12:35;;;;;;;6.83;5.63;;;;;;;11.80;25.39;101466.63;10076706;29;20257;-85
2022/04/27 11:17:40;;;;;;;8.87;7.23;;;;;;;10.40;25.41;101462.91;10120176;29;20903;-83
2022/04/27 11:22:43;;;;;;;8.43;5.97;;;;;;;11.50;25.04;101458.50;10151566;29;20208;-82
2022/04/27 11:27:45;;;;;;;7.63;6.43;;;;;;;11.84;24.42;101462.69;10135391;29;20544;-83
2022/04/27 11:32:48;;;;;;;8.50;6.37;;;;;;;12.42;24.79;101459.22;10160806;29;20264;-82
2022/04/27 11:37:52;;;;;;;9.03;6.20;;;;;;;12.26;24.20;101458.44;10153285;29;20236;-83
2022/04/27 11:42:58;;;;;;;7.17;6.43;;;;;;;12.73;24.09;101461.19;10148928;29;20244;-83
2022/04/27 11:48:04;;;;;;;7.43;6.00;;;;;;;13.08;23.24;101458.28;10141088;29;20240;-86
2022/04/27 11:53:13;;;;;;;8.57;6.70;;;;;;;11.83;24.06;101445.91;10150146;29;20248;-84
2022/04/27 11:58:23;;;;;;;10.18;7.10;;;;;;;12.76;22.90;101455.56;10151756;29;20233;-85
2022/04/27 12:03:26;;;;;;;9.77;6.30;;;;;;;12.46;23.85;101455.25;10169006;29;20236;-86
2022/04/27 12:08:29;;;;;;;7.80;6.80;;;;;;;12.83;23.86;101454.88;10134069;29;20346;-84
2022/04/27 12:13:33;;;;;;;7.67;6.83;;;;;;;11.82;24.03;101455.69;10148604;29;20356;-85
2022/04/27 12:18:36;;;;;;;8.57;6.43;;;;;;;12.20;22.94;101453.00;10152432;29;20268;-85
2022/04/27 12:23:38;;;;;;;8.23;6.60;;;;;;;12.67;23.96;101454.94;10146392;29;20228;-84
2022/04/27 12:28:44;;;;;;;11.27;7.40;;;;;;;11.61;23.83;101447.38;10161672;29;20280;-83
2022/04/27 12:33:50;;;;;;;8.97;6.80;;;;;;;12.06;24.03;101438.34;10150714;29;20327;-83
2022/04/27 12:38:58;;;;;;;8.37;7.57;;;;;;;12.33;24.61;101435.72;10152397;29;20258;-83
2022/04/27 12:44:08;;;;;;;9.23;7.10;;;;;;;12.87;23.15;101428.00;10162022;29;20232;-82
2022/04/27 12:49:39;;;;;;;8.07;7.27;;;;;;;10.89;25.28;101439.97;10146680;29;20530;-83
2022/04/27 12:54:43;;;;;;;8.30;6.57;;;;;;;13.24;23.18;101436.09;10168325;29;20564;-83
2022/04/27 13:00:03;;;;;;;8.93;6.83;;;;;;;13.68;22.87;101430.00;10164009;29;20208;-83
2022/04/27 13:05:08;;;;;;;8.23;7.00;;;;;;;12.64;23.92;101429.91;10170361;29;20224;-83
2022/04/27 13:15:31;;;;;;;9.13;6.75;;;;;;;13.52;22.36;101413.75;10152749;29;20231;-82
2022/04/27 13:20:34;;;;;;;8.20;7.30;;;;;;;12.93;22.62;101415.00;10164362;29;20256;-84
2022/04/27 13:25:37;;;;;;;8.75;6.38;;;;;;;14.21;22.04;101396.50;10177702;29;20277;-86
2022/04/27 13:30:43;;;;;;;9.18;7.00;;;;;;;13.15;22.87;101390.50;10150803;29;20299;-86
2022/04/27 13:35:46;;;;;;;8.60;7.00;;;;;;;12.13;23.83;101397.66;10148392;29;20327;-85
2022/04/27 13:40:50;;;;;;;7.03;5.90;;;;;;;13.19;23.77;101394.25;10150036;29;20271;-84
2022/04/27 13:45:53;;;;;;;8.17;6.33;;;;;;;13.73;22.88;101387.47;10149076;29;20232;-83
2022/04/27 13:50:55;;;;;;;9.80;7.38;;;;;;;12.65;24.32;101396.41;10175733;29;20217;-85
2022/04/27 13:55:58;;;;;;;7.43;6.65;;;;;;;12.23;24.11;101403.63;10164346;29;20247;-82
2022/04/27 14:01:00;;;;;;;8.87;6.50;;;;;;;13.09;23.31;101388.31;10179007;29;20264;-84
2022/04/27 14:06:03;;;;;;;9.87;7.13;;;;;;;11.45;25.15;101395.94;10161494;29;20307;-82
2022/04/27 14:11:05;;;;;;;8.37;6.63;;;;;;;12.65;23.77;101385.78;10147784;29;20330;-81
2022/04/27 14:21:28;;;;;;;10.15;7.15;;;;;;;14.34;21.48;101372.09;10172738;29;20256;-83
2022/04/27 14:26:30;;;;;;;9.10;6.38;;;;;;;13.82;22.42;101365.13;10142167;29;20256;-83
2022/04/27 14:31:33;;;;;;;7.83;6.53;;;;;;;11.98;24.41;101376.44;10158504;29;20252;-83
2022/04/27 14:36:35;;;;;;;12.55;7.00;;;;;;;13.64;21.95;101364.81;10164336;29;20193;-83
2022/04/27 14:41:37;;;;;;;10.00;7.50;;;;;;;13.06;23.07;101363.31;10158038;29;20292;-83
2022/04/27 14:46:40;;;;;;;9.13;6.53;;;;;;;13.22;23.12;101361.16;10168691;29;20917;-83
2022/04/27 14:51:44;;;;;;;7.77;6.53;;;;;;;13.33;22.82;101349.91;10188340;29;20784;-81
2022/04/27 14:56:46;;;;;;;12.02;6.93;;;;;;;13.11;22.91;101360.13;10159321;29;20248;-82
2022/04/27 15:01:48;;;;;;;10.30;7.15;;;;;;;12.72;23.60;101367.94;10153320;29;20288;-84
2022/04/27 15:06:51;;;;;;;8.98;6.90;;;;;;;13.10;22.74;101367.06;10157707;29;20232;-83
2022/04/27 15:11:53;;;;;;;6.80;6.30;;;;;;;13.25;22.53;101363.25;10158997;29;20708;-84
2022/04/27 15:16:55;;;;;;;8.88;7.50;;;;;;;14.02;21.54;101359.31;10171522;29;20289;-86
2022/04/27 15:27:18;;;;;;;7.78;6.88;;;;;;;14.61;21.32;101362.25;10158144;29;20228;-80
2022/04/27 15:32:21;;;;;;;8.75;7.72;;;;;;;13.90;21.97;101354.63;10151473;29;20649;-84
2022/04/27 15:37:23;;;;;;;9.63;7.03;;;;;;;14.35;21.61;101354.50;10139652;29;20204;-84
2022/04/27 15:42:25;;;;;;;9.68;6.70;;;;;;;14.36;22.08;101356.13;10147046;29;20583;-81
2022/04/27 15:47:27;;;;;;;8.13;7.13;;;;;;;13.09;23.18;101362.53;10166533;29;20236;-82
2022/04/27 15:52:31;;;;;;;8.73;7.57;;;;;;;12.32;23.76;101368.25;10152170;29;20244;-82
2022/04/27 15:57:34;;;;;;;10.38;7.05;;;;;;;13.51;22.56;101357.63;10153644;29;20228;-81
2022/04/27 16:02:37;;;;;;;10.17;7.10;;;;;;;14.29;21.68;101355.19;10167056;29;20228;-85
2022/04/27 16:07:41;;;;;;;8.68;7.20;;;;;;;13.41;22.28;101361.16;10140404;29;20244;-84
2022/04/27 16:12:44;;;;;;;10.43;7.30;;;;;;;14.22;20.98;101358.81;10151941;29;20315;-84
2022/04/27 16:17:46;;;;;;;10.52;7.13;;;;;;;13.78;22.21;101361.38;10145180;29;20315;-84
2022/04/27 16:28:09;;;;;;;6.85;6.25;;;;;;;14.88;21.71;101357.22;10151402;29;20275;-82
2022/04/27 16:33:12;;;;;;;10.52;7.75;;;;;;;12.79;22.83;101374.66;10154595;29;20263;-81
2022/04/27 16:38:14;;;;;;;8.82;7.05;;;;;;;13.76;22.77;101366.66;10153996;29;20867;-83
2022/04/27 16:43:16;;;;;;;10.45;7.13;;;;;;;14.79;21.68;101364.50;10151363;29;20287;-83
2022/04/27 16:48:18;;;;;;;7.25;6.43;;;;;;;13.92;22.03;101360.78;10150337;29;20229;-84
2022/04/27 16:53:20;;;;;;;12.05;7.07;;;;;;;14.00;22.03;101371.16;10151981;29;20247;-82
2022/04/27 16:58:22;;;;;;;9.85;7.10;;;;;;;14.28;21.69;101365.84;10151460;29;20253;-82
2022/04/27 17:03:28;;;;;;;8.37;6.97;;;;;;;13.41;23.25;101378.34;10165223;29;20220;-84
2022/04/27 17:08:31;;;;;;;12.60;7.72;;;;;;;12.88;23.08;101378.09;10150357;29;20422;-81
2022/04/27 17:13:33;;;;;;;12.17;8.47;;;;;;;14.06;22.46;101372.50;10150835;29;20248;-82
2022/04/27 17:18:43;;;;;;;7.40;6.60;;;;;;;13.86;22.45;101379.50;10127471;29;20320;-81
2022/04/27 17:23:45;;;;;;;7.70;6.75;;;;;;;14.05;21.96;101379.44;10142869;29;20306;-85
2022/04/27 17:29:02;;;;;;;11.00;6.90;;;;;;;13.44;22.45;101389.03;10161596;29;20232;-81
2022/04/27 17:34:08;;;;;;;9.07;6.53;;;;;;;14.17;21.70;101382.09;10166593;29;20272;-82
2022/04/27 17:39:10;;;;;;;8.70;6.05;;;;;;;13.03;22.94;101392.72;10155866;29;20252;-80
2022/04/27 17:44:13;;;;;;;8.83;5.43;;;;;;;14.15;22.24;101401.72;10164172;29;20237;-85
2022/04/27 17:49:15;;;;;;;8.30;5.97;;;;;;;13.86;22.75;101393.84;10163429;29;20224;-83
2022/04/27 17:54:17;;;;;;;8.70;6.88;;;;;;;12.98;23.44;101415.91;10161346;29;20256;-81
2022/04/27 17:59:19;;;;;;;7.83;6.17;;;;;;;13.45;22.54;101413.59;10168644;29;20185;-85
2022/04/27 18:04:22;;;;;;;12.45;9.05;;;;;;;13.22;22.95;101415.59;10163250;29;20227;-81
2022/04/27 18:09:27;;;;;;;9.32;7.10;;;;;;;13.56;23.23;101417.53;10166415;29;20229;-81
2022/04/27 18:14:29;;;;;;;9.40;6.10;;;;;;;13.67;22.60;101420.56;10167278;29;20255;-87
2022/04/27 18:19:33;;;;;;;7.20;6.20;;;;;;;13.52;23.20;101428.09;10176008;29;20232;-81
2022/04/27 18:24:35;;;;;;;13.25;6.72;;;;;;;13.09;23.69;101443.56;10151216;29;20236;-86
2022/04/27 18:29:39;;;;;;;8.50;6.00;;;;;;;12.97;24.37;101445.75;10143603;29;20240;-83
2022/04/27 18:34:41;;;;;;;12.73;6.50;;;;;;;12.32;25.38;101445.50;10146373;29;20291;-82
2022/04/27 18:39:44;;;;;;;13.77;6.47;;;;;;;12.64;24.70;101451.97;10149629;29;20533;-82
2022/04/27 18:50:08;;;;;;;9.30;7.40;;;;;;;11.73;26.26;101467.31;10172655;29;20220;-81
2022/04/27 18:55:10;;;;;;;10.63;6.80;;;;;;;12.28;25.70;101470.34;10155005;29;20343;-83
2022/04/27 19:00:14;;;;;;;10.57;7.40;;;;;;;12.22;25.91;101481.25;10156387;29;20561;-87
2022/04/27 19:05:16;;;;;;;10.80;7.63;;;;;;;11.84;26.63;101488.41;10138798;29;20228;-82
2022/04/27 19:10:20;;;;;;;14.13;8.20;;;;;;;11.45;27.46;101493.06;10146837;29;20284;-82
2022/04/27 19:15:22;;;;;;;17.80;8.27;;;;;;;11.76;26.56;101503.72;10142387;29;20277;-83
2022/04/27 19:20:25;;;;;;;12.53;8.60;;;;;;;11.83;26.67;101500.22;10125056;29;20261;-86
2022/04/27 19:25:29;;;;;;;12.10;8.10;;;;;;;11.66;26.50;101509.13;10151430;29;20287;-86
2022/04/27 19:30:32;;;;;;;11.77;7.63;;;;;;;11.77;25.71;101518.81;10181444;29;20196;-85
2022/04/27 19:35:34;;;;;;;9.63;6.77;;;;;;;11.33;26.09;101527.38;10167106;29;20225;-84
2022/04/27 19:40:37;;;;;;;11.40;7.57;;;;;;;11.13;26.61;101529.22;10156654;29;20212;-86
2022/04/27 19:46:16;;;;;;;6.80;5.77;;;;;;;11.15;26.64;101534.56;10160566;29;20201;-86
2022/04/27 19:51:02;;;;;;;7.00;5.07;;;;;;;10.68;27.20;101532.28;10174149;29;20543;-85
2022/04/27 19:56:05;;;;;;;8.23;5.30;;;;;;;11.06;26.93;101542.47;10162125;29;20290;-88
2022/04/27 20:01:07;;;;;;;10.33;4.30;;;;;;;10.85;26.57;101547.53;10164868;29;20208;-86
2022/04/27 20:06:09;;;;;;;6.30;4.77;;;;;;;10.67;27.81;101547.75;10163068;29;20225;-88
2022/04/27 20:11:12;;;;;;;7.37;4.63;;;;;;;10.66;27.69;101545.25;10166853;29;20260;-86
2022/04/27 20:16:16;;;;;;;7.67;4.57;;;;;;;10.39;28.26;101552.50;10171215;29;20209;-86
2022/04/27 20:21:18;;;;;;;11.97;5.00;;;;;;;10.60;27.75;101561.75;10157970;29;20260;-83
2022/04/27 20:26:22;;;;;;;4.47;3.57;;;;;;;10.02;28.40;101565.88;10169932;29;20200;-86
2022/04/27 20:31:25;;;;;;;7.60;4.67;;;;;;;10.21;27.75;101568.19;10175348;29;20606;-83
2022/04/27 20:36:27;;;;;;;8.27;3.97;;;;;;;10.07;27.61;101577.06;10173529;29;20208;-86
2022/04/27 20:41:30;;;;;;;6.33;3.60;;;;;;;10.25;27.37;101574.84;10178307;29;20196;-87
2022/04/27 20:46:33;;;;;;;10.00;4.60;;;;;;;9.99;28.40;101584.50;10150774;29;20260;-87
2022/04/27 20:51:35;;;;;;;7.73;3.67;;;;;;;9.74;28.17;101592.16;10166374;29;20599;-83
2022/04/27 20:56:38;;;;;;;10.33;3.67;;;;;;;9.90;28.11;101592.34;10179845;29;20201;-83
2022/04/27 21:01:40;;;;;;;6.17;3.60;;;;;;;9.76;27.79;101589.81;10183290;29;20220;-82
2022/04/27 21:06:43;;;;;;;4.93;3.77;;;;;;;9.30;28.54;101590.84;10194779;29;20272;-82
2022/04/27 21:11:45;;;;;;;7.37;4.20;;;;;;;9.78;28.21;101589.44;10162767;29;20205;-84
2022/04/27 21:16:48;;;;;;;6.83;4.63;;;;;;;9.03;29.26;101597.13;10168993;29;20221;-84
2022/04/27 21:21:51;;;;;;;8.20;5.37;;;;;;;9.37;28.67;101596.84;10161171;29;20535;-87
2022/04/27 21:26:53;;;;;;;11.10;4.70;;;;;;;9.32;28.05;101591.34;10163023;29;20189;-87
2022/04/27 21:32:00;;;;;;;8.00;4.37;;;;;;;9.32;27.69;101599.91;10145663;29;20279;-87
2022/04/27 21:37:02;;;;;;;6.90;4.40;;;;;;;9.63;27.86;101598.66;10159885;29;20201;-87
2022/04/27 21:42:05;;;;;;;5.77;3.93;;;;;;;9.52;28.17;101612.50;10162775;29;20205;-87
2022/04/27 21:47:07;;;;;;;9.60;4.57;;;;;;;9.36;27.94;101619.97;10162109;29;20590;-87
2022/04/27 21:52:15;;;;;;;7.30;4.40;;;;;;;9.51;28.62;101624.25;10163360;29;20491;-87
2022/04/27 21:57:17;;;;;;;7.20;4.03;;;;;;;9.03;29.15;101631.28;10145132;29;20204;-85
2022/04/27 22:02:19;;;;;;;7.23;4.50;;;;;;;9.03;29.23;101637.81;10163236;29;20193;-88
2022/04/27 22:07:22;;;;;;;6.57;4.73;;;;;;;8.90;29.11;101638.91;10178475;29;20606;-84
2022/04/27 22:12:25;;;;;;;10.63;5.00;;;;;;;8.99;29.02;101633.97;10170470;29;20260;-85
2022/04/27 22:17:27;;;;;;;6.77;4.77;;;;;;;8.73;29.45;101644.69;10187311;29;20236;-85
2022/04/27 22:22:30;;;;;;;9.23;5.23;;;;;;;8.77;29.43;101639.16;10171137;29;20193;-83
2022/04/27 22:27:32;;;;;;;10.53;5.33;;;;;;;8.67;29.64;101648.84;10170059;29;20192;-86
2022/04/27 22:32:34;;;;;;;7.10;5.20;;;;;;;8.17;29.95;101651.56;10170885;29;20220;-85
2022/04/27 22:37:36;;;;;;;9.83;4.83;;;;;;;8.22;29.62;101651.38;10169079;29;20322;-84
2022/04/27 22:42:38;;;;;;;6.70;4.50;;;;;;;8.35;29.81;101654.03;10183226;29;20200;-85
2022/04/27 22:47:40;;;;;;;10.37;5.10;;;;;;;8.21;30.13;101661.09;10167975;29;20256;-82
2022/04/27 22:52:42;;;;;;;7.37;4.90;;;;;;;8.21;30.01;101661.09;10168451;29;20240;-85
2022/04/27 22:57:44;;;;;;;6.07;5.07;;;;;;;8.37;30.04;101665.06;10169026;29;20256;-86
2022/04/27 23:02:47;;;;;;;10.47;5.10;;;;;;;8.02;30.47;101665.13;10168699;29;20201;-86
2022/04/27 23:13:10;;;;;;;10.27;4.93;;;;;;;7.95;30.45;101670.47;10176005;29;20236;-81
2022/04/27 23:18:12;;;;;;;8.27;5.27;;;;;;;7.59;30.04;101672.84;10162796;29;20393;-85
2022/04/27 23:23:14;;;;;;;10.23;5.13;;;;;;;7.61;30.50;101673.31;10164887;29;20224;-86
2022/04/27 23:28:17;;;;;;;7.70;5.57;;;;;;;7.67;30.56;101675.69;10154708;29;20292;-86
2022/04/27 23:33:19;;;;;;;8.53;5.60;;;;;;;7.38;30.97;101677.50;10165592;29;20506;-83
2022/04/27 23:38:22;;;;;;;7.10;5.53;;;;;;;7.57;30.95;101669.50;10150424;29;20217;-85
2022/04/27 23:43:24;;;;;;;8.43;5.67;;;;;;;7.19;31.31;101680.63;10165309;29;20197;-81
2022/04/27 23:48:26;;;;;;;8.10;5.87;;;;;;;7.52;30.85;101683.84;10167903;29;20205;-86
2022/04/27 23:53:28;;;;;;;11.97;6.10;;;;;;;7.74;30.38;101678.00;10182812;29;20224;-82
2022/04/27 23:58:31;;;;;;;6.83;6.17;;;;;;;7.50;30.30;101677.66;10164679;29;20205;-82
